Pagrindinis puslapis
METAR-TAF:

METAR-TAF

Oro uostai :

Quatro de Fevereiro oro uostas

Luanda, Angola

platuma: 08-51S, ilguma: 013-14E, Aukštis: 74 m

Dabartinis oras

Ataskaita buvo paskelbta 45 minutes, ne 09:00 UTC
Vėjas 1 kt nuo kintamojo kryptimis
Temperatūra 28°C
Drėgmė 70%
Slėgis 1013 hPa
Matomumas: 9000 m
Su prošvaistėmis ne aukštis 2000 ft

METAR: FNLU 310900Z VRB01KT 9000 BKN020 28/22 Q1013 NOSIG

Laikas: 10:45 (09:45 UTC)

Prognozė

Ataskaita buvo paskelbta 10 valandos ir 45 minutes, ne 23:00 UTC
Prognozė galioja nuo 31 metu 00 UTC su 01 metu 06 UTC
Vėjas 4 kt iš Pietų
Matomumas: 9000 m
Su prošvaistėmis ne aukštis 2000 ft
Tikimybė 30% :
Laikinai
nuo 31 metu 04 UTC su 31 metu 08 UTC
Vėjas 3 kt nuo kintamojo kryptimis
Matomumas: 5000 m
rūkana
Tapsmas
nuo 31 metu 11 UTC su 31 metu 13 UTC
Vėjas 8 kt iš Vakarų
Matomumas 10 km arba daugiau
Mažai debesys ne aukštis 2200 ft

TAF: FNLU 302300Z 3100/0106 19004KT 9000 BKN020 PROB30 TEMPO 3104/3108 VRB03KT 5000 BR BECMG 3111/3113 27008KT 9999 FEW022

Orai ataskaitas ir orų prognozės (METAR, TAF).

turimą stotys yra geltonos ir raudonos taškus žemėlapyje.

Perkelti pele per norėdami pamatyti stoties vardą.

Tada spustelėkite, norėdami matyti oro stebėjimo ir prognozės.

Norėdami pakeisti žemėlapį: spustelėkite ant žalios mygtukų su juodo kryžiaus žemyn,; žalią mygtuką su brūkšneliu, jei norite nutolinti; arba žalių rodyklių gretimoms žemėlapius.


METAR-TAF: